.
WxDataArchive / Data Records for 2012-11-14
2012-11-13 November 2012 2012-11-15

Data Records for Wednesday, 14 November 2012

Time	Temp	Chill	HIndex	Humid	Dewpt	 Wind 	HiWind	WindDir	Rain 	Barom 
-----	----	-----	------	-----	-----	------	------	-------	-----	----- 
00:00	23.8	23.8	23.8	85	20.0	0	0	---	0.00	30.547 
00:05	23.8	23.8	23.8	85	20.0	0	0	---	0.00	30.547 
00:10	23.8	23.8	23.8	85	20.0	0	0	---	0.00	30.547 
00:15	23.6	23.6	23.6	85	19.8	0	0	---	0.00	30.549 
00:20	23.6	23.6	23.6	85	19.8	0	0	---	0.00	30.549 
00:25	23.5	23.5	23.5	85	19.7	0	0	---	0.00	30.549 
00:30	23.3	23.3	23.3	85	19.5	0	0	---	0.00	30.550 
00:35	23.3	23.3	23.3	85	19.5	0	0	---	0.00	30.550 
00:40	23.3	23.3	23.3	85	19.5	0	0	---	0.00	30.550 
00:45	23.2	23.2	23.2	85	19.4	0	0	---	0.00	30.550 
00:50	23.2	23.2	23.2	85	19.4	0	0	---	0.00	30.550 
00:55	23.0	23.0	23.0	85	19.2	0	0	---	0.00	30.550 
01:00	23.0	23.0	23.0	85	19.2	0	0	---	0.00	30.550 
01:05	22.9	22.9	22.9	85	19.1	0	0	---	0.00	30.550 
01:10	23.0	23.0	23.0	86	19.4	0	0	---	0.00	30.550 
01:15	23.0	23.0	23.0	86	19.4	0	0	---	0.00	30.550 
01:20	23.0	23.0	23.0	86	19.4	0	0	---	0.00	30.550 
01:25	22.9	22.9	22.9	86	19.4	0	0	---	0.00	30.550 
01:30	22.7	22.7	22.7	86	19.2	0	0	---	0.00	30.551 
01:35	22.7	22.7	22.7	86	19.2	0	0	---	0.00	30.551 
01:40	22.7	22.7	22.7	86	19.2	0	0	---	0.00	30.551 
01:45	22.5	22.5	22.5	86	19.0	0	0	---	0.00	30.548 
01:50	22.4	22.4	22.4	86	18.9	0	0	---	0.00	30.548 
01:55	22.4	22.4	22.4	87	19.1	0	0	---	0.00	30.548 
02:00	22.4	22.4	22.4	87	19.1	0	0	---	0.00	30.547 
02:05	22.4	22.4	22.4	87	19.1	0	0	---	0.00	30.547 
02:10	22.2	22.2	22.2	87	18.9	0	0	---	0.00	30.547 
02:15	22.4	22.4	22.4	87	19.1	0	0	---	0.00	30.550 
02:20	22.4	22.4	22.4	88	19.4	0	0	---	0.00	30.550 
02:25	22.4	22.4	22.4	87	19.1	0	0	---	0.00	30.550 
02:30	22.4	22.4	22.4	88	19.4	0	0	---	0.00	30.557 
02:35	22.2	22.2	22.2	88	19.2	0	0	---	0.00	30.557 
02:40	22.2	22.2	22.2	88	19.2	0	0	---	0.00	30.557 
02:45	22.1	22.1	22.1	88	19.1	0	0	---	0.00	30.564 
02:50	21.9	21.9	21.9	88	18.9	0	0	---	0.00	30.564 
02:55	22.1	22.1	22.1	88	19.1	0	0	---	0.00	30.564 
03:00	22.1	22.1	22.1	88	19.1	0	0	---	0.00	30.567 
03:05	21.9	21.9	21.9	88	18.9	0	0	---	0.00	30.567 
03:10	21.9	21.9	21.9	88	18.9	0	0	---	0.00	30.567 
03:15	21.9	21.9	21.9	88	18.9	0	0	---	0.00	30.568 
03:20	21.9	21.9	21.9	88	18.9	0	0	---	0.00	30.568 
03:25	21.9	21.9	21.9	88	18.9	0	0	---	0.00	30.568 
03:30	21.9	21.9	21.9	88	18.9	0	0	---	0.00	30.566 
03:35	21.9	21.9	21.9	88	18.9	0	0	---	0.00	30.566 
03:40	21.8	21.8	21.8	88	18.8	0	0	---	0.00	30.566 
03:45	21.8	21.8	21.8	88	18.8	0	0	---	0.00	30.568 
03:50	21.6	21.6	21.6	88	18.6	0	0	---	0.00	30.568 
03:55	21.6	21.6	21.6	88	18.6	0	0	---	0.00	30.568 
04:00	21.4	21.4	21.4	88	18.4	0	0	---	0.00	30.571 
04:05	21.4	21.4	21.4	88	18.4	0	0	---	0.00	30.571 
04:10	21.3	21.3	21.3	88	18.3	0	0	---	0.00	30.571 
04:15	21.3	21.3	21.3	88	18.3	0	0	---	0.00	30.571 
04:20	21.3	21.3	21.3	88	18.3	0	0	---	0.00	30.571 
04:25	21.1	21.1	21.1	88	18.1	0	0	---	0.00	30.571 
04:30	21.1	21.1	21.1	88	18.1	0	0	---	0.00	30.567 
04:35	21.0	21.0	21.0	88	18.0	0	0	---	0.00	30.567 
04:40	21.0	21.0	21.0	88	18.0	0	0	---	0.00	30.567 
04:45	21.0	21.0	21.0	88	18.0	0	0	---	0.00	30.563 
04:50	20.8	20.8	20.8	88	17.8	0	0	---	0.00	30.563 
04:55	20.8	20.8	20.8	88	17.8	0	0	---	0.00	30.563 
05:00	20.8	20.8	20.8	88	17.8	0	0	---	0.00	30.567 
05:05	20.8	20.8	20.8	88	17.8	0	0	---	0.00	30.567 
05:10	20.6	20.6	20.6	88	17.6	0	0	---	0.00	30.567 
05:15	20.6	20.6	20.6	88	17.6	0	0	---	0.00	30.572 
05:20	20.5	20.5	20.5	88	17.5	0	0	---	0.00	30.572 
05:25	20.5	20.5	20.5	88	17.5	0	0	---	0.00	30.572 
05:30	20.5	20.5	20.5	88	17.5	0	0	---	0.00	30.574 
05:35	20.5	20.5	20.5	88	17.5	0	0	---	0.00	30.574 
05:40	20.5	20.5	20.5	89	17.8	0	0	---	0.00	30.574 
05:45	20.5	20.5	20.5	89	17.8	0	0	---	0.00	30.582 
05:50	20.5	20.5	20.5	89	17.8	0	0	---	0.00	30.582 
05:55	20.5	20.5	20.5	89	17.8	0	0	---	0.00	30.582 
06:00	20.5	20.5	20.5	89	17.8	0	0	---	0.00	30.586 
06:05	20.5	20.5	20.5	89	17.8	0	0	---	0.00	30.586 
06:10	20.5	20.5	20.5	89	17.8	0	0	---	0.00	30.586 
06:15	20.5	20.5	20.5	89	17.8	0	0	---	0.00	30.589 
06:20	20.6	20.6	20.6	89	17.9	0	0	---	0.00	30.589 
06:25	20.6	20.6	20.6	89	17.9	0	0	---	0.00	30.589 
06:30	20.5	20.5	20.5	89	17.8	0	0	---	0.00	30.588 
06:35	20.5	20.5	20.5	89	17.8	0	0	---	0.00	30.588 
06:40	20.5	20.5	20.5	89	17.8	0	0	---	0.00	30.588 
06:45	20.6	20.6	20.6	89	17.9	0	0	---	0.00	30.586 
06:50	20.6	20.6	20.6	89	17.9	0	0	---	0.00	30.586 
06:55	20.5	20.5	20.5	89	17.8	0	0	---	0.00	30.586 
07:00	20.5	20.5	20.5	89	17.8	0	0	---	0.00	30.588 
07:05	20.6	20.6	20.6	89	17.9	0	0	---	0.00	30.588 
07:10	20.8	20.8	20.8	89	18.1	0	0	---	0.00	30.588 
07:15	21.0	21.0	21.0	90	18.5	0	0	---	0.00	30.591 
07:20	21.1	21.1	21.1	90	18.6	0	0	---	0.00	30.591 
07:25	21.3	21.3	21.3	90	18.8	0	0	---	0.00	30.591 
07:30	21.3	21.3	21.3	90	18.8	0	0	---	0.00	30.588 
07:35	21.3	21.3	21.3	90	18.8	0	0	---	0.00	30.588 
07:40	21.3	21.3	21.3	90	18.8	0	0	---	0.00	30.588 
07:45	21.4	21.4	21.4	90	18.9	0	0	---	0.00	30.591 
07:50	21.6	21.6	21.6	90	19.1	0	0	---	0.00	30.591 
07:55	21.8	21.8	21.8	90	19.3	0	0	---	0.00	30.591 
08:00	21.8	21.8	21.8	90	19.3	0	0	---	0.00	30.593 
08:05	22.1	22.1	22.1	90	19.6	0	0	---	0.00	30.593 
08:10	22.9	22.9	22.9	92	20.9	0	1	338	0.00	30.593 
08:15	24.1	24.1	24.1	92	22.1	0	1	338	0.00	30.591 
08:20	25.1	25.1	25.1	90	22.6	0	2	180	0.00	30.591 
08:25	25.7	25.7	25.7	88	22.6	0	3	112	0.00	30.591 
08:30	26.3	26.3	26.3	86	22.7	0	2	112	0.00	30.591 
08:35	26.7	26.7	26.7	84	22.5	0	2	112	0.00	30.591 
08:40	26.9	26.9	26.9	83	22.4	1	3	112	0.00	30.591 
08:45	27.0	27.0	27.0	82	22.3	1	3	90	0.00	30.602 
08:50	27.2	27.2	27.2	82	22.4	0	1	90	0.00	30.602 
08:55	27.5	27.5	27.5	82	22.7	1	4	90	0.00	30.602 
09:00	27.8	27.8	27.8	81	22.7	2	5	90	0.00	30.585 
09:05	28.1	28.1	28.1	80	22.7	2	5	90	0.00	30.585 
09:10	28.4	28.4	28.4	80	23.0	2	6	90	0.00	30.585 
09:15	28.8	28.8	28.8	79	23.1	1	3	90	0.00	30.585 
09:20	29.3	29.3	29.3	78	23.3	2	4	90	0.00	30.585 
09:25	29.7	29.7	29.7	79	24.0	1	3	90	0.00	30.585 
09:30	30.3	30.3	30.3	78	24.3	1	3	90	0.00	30.587 
09:35	30.6	30.6	30.6	77	24.3	1	4	90	0.00	30.587 
09:40	30.7	30.7	30.7	77	24.4	2	5	90	0.00	30.587 
09:45	30.9	30.9	30.9	78	24.9	1	3	90	0.00	30.586 
09:50	31.2	31.2	31.2	78	25.2	2	4	90	0.00	30.586 
09:55	31.6	31.6	31.6	78	25.5	1	3	90	0.00	30.586 
10:00	31.8	31.8	31.8	77	25.4	2	5	90	0.00	30.582 
10:05	31.9	31.9	31.9	77	25.5	1	4	90	0.00	30.582 
10:10	32.2	32.2	32.2	78	26.1	0	2	90	0.00	30.582 
10:15	32.5	32.5	32.5	78	26.4	0	2	90	0.00	30.583 
10:20	32.9	32.9	32.9	78	26.8	1	4	90	0.00	30.583 
10:25	33.1	33.1	33.1	76	26.4	1	4	90	0.00	30.583 
10:30	33.4	33.4	33.4	76	26.7	1	3	90	0.00	30.581 
10:35	33.5	33.5	33.5	75	26.4	1	3	68	0.00	30.581 
10:40	33.7	33.7	33.7	76	27.0	0	3	68	0.00	30.581 
10:45	34.0	34.0	34.0	76	27.2	1	3	68	0.00	30.581 
10:50	34.1	34.1	34.1	74	26.7	2	6	90	0.00	30.581 
10:55	34.3	34.3	34.3	73	26.6	1	3	90	0.00	30.581 
11:00	34.6	34.6	34.6	73	26.9	1	4	90	0.00	30.590 
11:05	34.9	34.9	34.9	73	27.1	1	4	90	0.00	30.590 
11:10	35.2	35.2	35.2	71	26.8	1	3	90	0.00	30.590 
11:15	35.5	35.5	35.5	69	26.4	1	3	90	0.00	30.587 
11:20	35.6	35.6	35.6	69	26.4	1	4	90	0.00	30.587 
11:25	35.8	35.8	35.8	68	26.3	2	5	90	0.00	30.587 
11:30	35.9	35.9	35.9	67	26.0	2	4	90	0.00	30.580 
11:35	36.0	36.0	36.0	65	25.4	3	6	90	0.00	30.580 
11:40	36.3	36.3	36.3	64	25.3	3	9	90	0.00	30.580 
11:45	36.5	36.5	36.5	64	25.5	3	6	90	0.00	30.567 
11:50	36.8	36.8	36.8	62	25.0	1	5	90	0.00	30.567 
11:55	36.9	36.9	36.9	63	25.5	2	6	90	0.00	30.567 
12:00	37.0	37.0	37.0	61	24.8	1	4	90	0.00	30.564 
12:05	37.3	37.3	37.3	60	24.7	2	6	90	0.00	30.564 
12:10	37.8	37.8	37.8	61	25.6	2	5	90	0.00	30.564 
12:15	37.9	37.9	37.9	59	24.9	2	4	90	0.00	30.560 
12:20	37.9	37.9	37.9	58	24.5	2	6	90	0.00	30.560 
12:25	37.9	37.9	37.9	58	24.5	1	4	90	0.00	30.560 
12:30	38.0	38.0	38.0	58	24.6	1	4	90	0.00	30.549 
12:35	38.2	38.2	38.2	57	24.3	1	6	90	0.00	30.549 
12:40	38.3	38.3	38.3	57	24.4	3	9	90	0.00	30.549 
12:45	38.6	38.6	38.6	58	25.1	2	5	112	0.00	30.538 
12:50	38.6	38.6	38.6	57	24.7	2	6	112	0.00	30.538 
12:55	38.6	38.6	38.6	57	24.7	2	6	90	0.00	30.538 
13:00	38.6	38.6	38.6	58	25.1	3	7	90	0.00	30.529 
13:05	38.5	38.5	38.5	58	25.0	2	6	90	0.00	30.529 
13:10	38.5	38.5	38.5	58	25.0	3	5	90	0.00	30.529 
13:15	38.8	38.8	38.8	57	24.9	3	7	90	0.00	30.522 
13:20	38.8	38.8	38.8	58	25.3	2	5	112	0.00	30.522 
13:25	38.8	38.8	38.8	58	25.3	2	9	90	0.00	30.522 
13:30	38.9	38.9	38.9	56	24.6	2	5	90	0.00	30.522 
13:35	38.8	38.8	38.8	57	24.9	3	7	90	0.00	30.522 
13:40	38.9	38.9	38.9	57	25.0	1	5	68	0.00	30.522 
13:45	39.1	39.1	39.1	57	25.2	2	5	90	0.00	30.517 
13:50	39.2	39.2	39.2	57	25.3	3	6	90	0.00	30.517 
13:55	39.2	39.2	39.2	58	25.7	2	5	90	0.00	30.517 
14:00	39.2	36.4	39.2	57	25.3	4	10	90	0.00	30.506 
14:05	39.1	39.1	39.1	56	24.7	3	7	90	0.00	30.506 
14:10	38.9	38.9	38.9	57	25.0	2	5	90	0.00	30.506 
14:15	38.8	38.8	38.8	58	25.3	2	6	90	0.00	30.510 
14:20	39.1	39.1	39.1	58	25.6	2	4	112	0.00	30.510 
14:25	39.2	39.2	39.2	57	25.3	1	4	112	0.00	30.510 
14:30	39.3	39.3	39.3	59	26.2	3	8	68	0.00	30.506 
14:35	39.3	39.3	39.3	58	25.8	2	5	90	0.00	30.506 
14:40	39.2	39.2	39.2	58	25.7	2	6	90	0.00	30.506 
14:45	39.1	39.1	39.1	59	26.0	3	6	68	0.00	30.500 
14:50	39.1	39.1	39.1	58	25.6	1	3	68	0.00	30.500 
14:55	39.1	39.1	39.1	59	26.0	2	7	68	0.00	30.500 
15:00	38.9	38.9	38.9	58	25.4	2	6	68	0.00	30.500 
15:05	38.9	38.9	38.9	59	25.8	2	6	90	0.00	30.500 
15:10	38.9	38.9	38.9	59	25.8	3	5	90	0.00	30.500 
15:15	38.9	38.9	38.9	59	25.8	2	4	90	0.00	30.487 
15:20	38.9	38.9	38.9	60	26.2	2	5	90	0.00	30.487 
15:25	38.8	38.8	38.8	59	25.7	2	9	90	0.00	30.487 
15:30	38.6	38.6	38.6	60	25.9	2	8	90	0.00	30.487 
15:35	38.5	38.5	38.5	60	25.8	2	5	90	0.00	30.487 
15:40	38.5	38.5	38.5	61	26.2	2	4	90	0.00	30.487 
15:45	38.3	38.3	38.3	61	26.0	1	4	90	0.00	30.487 
15:50	38.3	38.3	38.3	61	26.0	1	3	90	0.00	30.487 
15:55	38.5	38.5	38.5	61	26.2	1	4	90	0.00	30.487 
16:00	38.5	38.5	38.5	61	26.2	1	4	90	0.00	30.484 
16:05	38.5	38.5	38.5	61	26.2	0	2	90	0.00	30.484 
16:10	38.6	38.6	38.6	61	26.3	1	3	90	0.00	30.484 
16:15	38.5	38.5	38.5	61	26.2	1	3	90	0.00	30.487 
16:20	38.3	38.3	38.3	61	26.0	1	3	90	0.00	30.487 
16:25	38.3	38.3	38.3	62	26.4	1	4	90	0.00	30.487 
16:30	38.2	38.2	38.2	62	26.3	1	4	90	0.00	30.490 
16:35	38.0	38.0	38.0	62	26.2	2	5	90	0.00	30.490 
16:40	37.9	37.9	37.9	63	26.4	1	3	90	0.00	30.490 
16:45	37.8	37.8	37.8	64	26.7	0	1	90	0.00	30.488 
16:50	37.6	37.6	37.6	63	26.2	1	3	90	0.00	30.488 
16:55	37.6	37.6	37.6	64	26.5	0	2	90	0.00	30.488 
17:00	37.5	37.5	37.5	65	26.8	0	2	90	0.00	30.485 
17:05	37.2	37.2	37.2	65	26.5	0	3	90	0.00	30.485 
17:10	37.0	37.0	37.0	65	26.3	0	2	90	0.00	30.485 
17:15	36.8	36.8	36.8	65	26.2	0	0	---	0.00	30.486 
17:20	36.5	36.5	36.5	66	26.2	0	0	---	0.00	30.486 
17:25	36.2	36.2	36.2	67	26.3	0	0	---	0.00	30.486 
17:30	35.9	35.9	35.9	68	26.4	0	0	---	0.00	30.488 
17:35	35.6	35.6	35.6	69	26.4	0	0	---	0.00	30.488 
17:40	35.5	35.5	35.5	69	26.4	0	0	---	0.00	30.488 
17:45	35.3	35.3	35.3	70	26.5	0	0	---	0.00	30.487 
17:50	35.2	35.2	35.2	71	26.8	0	0	---	0.00	30.487 
17:55	35.0	35.0	35.0	71	26.6	0	0	---	0.00	30.487 
18:00	34.9	34.9	34.9	72	26.8	0	2	90	0.00	30.486 
18:05	35.0	35.0	35.0	72	26.9	1	2	90	0.00	30.486 
18:10	35.3	35.3	35.3	71	26.9	1	2	90	0.00	30.486 
18:15	35.5	35.5	35.5	71	27.0	1	3	90	0.00	30.472 
18:20	35.5	35.5	35.5	71	27.0	1	2	90	0.00	30.472 
18:25	35.6	35.6	35.6	70	26.8	1	3	90	0.00	30.472 
18:30	35.6	35.6	35.6	70	26.8	0	2	90	0.00	30.475 
18:35	35.6	35.6	35.6	70	26.8	1	5	90	0.00	30.475 
18:40	35.8	35.8	35.8	70	27.0	1	2	90	0.00	30.475 
18:45	35.6	35.6	35.6	70	26.8	0	3	90	0.00	30.474 
18:50	35.6	35.6	35.6	70	26.8	0	2	90	0.00	30.474 
18:55	35.6	35.6	35.6	70	26.8	1	3	90	0.00	30.474 
19:00	35.6	35.6	35.6	70	26.8	1	2	90	0.00	30.471 
19:05	35.6	35.6	35.6	70	26.8	1	3	90	0.00	30.471 
19:10	35.6	35.6	35.6	71	27.1	1	3	90	0.00	30.471 
19:15	35.6	35.6	35.6	71	27.1	1	4	90	0.00	30.458 
19:20	35.6	35.6	35.6	70	26.8	1	3	90	0.00	30.458 
19:25	35.5	35.5	35.5	70	26.7	1	3	90	0.00	30.458 
19:30	35.5	35.5	35.5	71	27.0	0	2	90	0.00	30.458 
19:35	35.3	35.3	35.3	71	26.9	0	1	90	0.00	30.458 
19:40	35.2	35.2	35.2	71	26.8	0	1	90	0.00	30.458 
19:45	35.0	35.0	35.0	72	26.9	0	1	90	0.00	30.466 
19:50	34.9	34.9	34.9	72	26.8	0	1	90	0.00	30.466 
19:55	34.7	34.7	34.7	73	26.9	0	1	90	0.00	30.466 
20:00	34.6	34.6	34.6	73	26.9	0	2	90	0.00	30.460 
20:05	34.4	34.4	34.4	74	27.0	0	1	90	0.00	30.460 
20:10	34.4	34.4	34.4	74	27.0	1	2	90	0.00	30.460 
20:15	34.4	34.4	34.4	74	27.0	1	2	90	0.00	30.450 
20:20	34.3	34.3	34.3	74	26.9	0	2	90	0.00	30.450 
20:25	34.3	34.3	34.3	75	27.2	0	1	90	0.00	30.450 
20:30	34.3	34.3	34.3	75	27.2	0	2	90	0.00	30.451 
20:35	34.3	34.3	34.3	74	26.9	1	3	90	0.00	30.451 
20:40	34.4	34.4	34.4	74	27.0	1	2	90	0.00	30.451 
20:45	34.4	34.4	34.4	74	27.0	0	2	90	0.00	30.452 
20:50	34.3	34.3	34.3	75	27.2	1	4	90	0.00	30.452 
20:55	34.3	34.3	34.3	75	27.2	0	2	90	0.00	30.452 
21:00	34.1	34.1	34.1	75	27.0	0	2	90	0.00	30.454 
21:05	34.0	34.0	34.0	75	26.9	0	3	90	0.00	30.454 
21:10	33.7	33.7	33.7	76	27.0	0	2	90	0.00	30.454 
21:15	33.5	33.5	33.5	76	26.8	0	0	---	0.00	30.452 
21:20	33.1	33.1	33.1	76	26.4	0	0	---	0.00	30.452 
21:25	32.8	32.8	32.8	77	26.4	0	1	90	0.00	30.452 
21:30	32.7	32.7	32.7	78	26.6	0	2	90	0.00	30.449 
21:35	32.5	32.5	32.5	79	26.7	1	3	90	0.00	30.449 
21:40	32.5	32.5	32.5	79	26.7	0	1	90	0.00	30.449 
21:45	32.4	32.4	32.4	79	26.6	0	2	90	0.00	30.449 
21:50	32.2	32.2	32.2	79	26.4	0	2	90	0.00	30.449 
21:55	32.2	32.2	32.2	80	26.7	0	2	90	0.00	30.449 
22:00	32.1	32.1	32.1	80	26.6	0	2	90	0.00	30.449 
22:05	31.9	31.9	31.9	80	26.4	0	1	90	0.00	30.449 
22:10	31.8	31.8	31.8	81	26.6	1	3	90	0.00	30.449 
22:15	31.8	31.8	31.8	81	26.6	0	2	90	0.00	30.445 
22:20	31.6	31.6	31.6	81	26.5	1	3	90	0.00	30.445 
22:25	31.5	31.5	31.5	81	26.4	1	3	90	0.00	30.445 
22:30	31.5	31.5	31.5	82	26.7	0	2	90	0.00	30.437 
22:35	31.5	31.5	31.5	82	26.7	1	4	90	0.00	30.437 
22:40	31.3	31.3	31.3	82	26.5	1	3	90	0.00	30.437 
22:45	31.3	31.3	31.3	82	26.5	0	0	---	0.00	30.438 
22:50	31.0	31.0	31.0	82	26.2	0	0	---	0.00	30.438 
22:55	30.7	30.7	30.7	82	25.9	0	0	---	0.00	30.438 
23:00	30.3	30.3	30.3	82	25.5	0	0	---	0.00	30.443 
23:05	30.1	30.1	30.1	82	25.3	0	0	---	0.00	30.443 
23:10	29.8	29.8	29.8	82	25.0	0	0	---	0.00	30.443 
23:15	29.5	29.5	29.5	83	25.0	0	1	90	0.00	30.432 
23:20	29.4	29.4	29.4	84	25.2	0	0	---	0.00	30.432 
23:25	29.1	29.1	29.1	84	24.9	0	0	---	0.00	30.432 
23:30	29.1	29.1	29.1	84	24.9	0	0	---	0.00	30.433 
23:35	29.0	29.0	29.0	84	24.8	0	0	---	0.00	30.433 
23:40	28.8	28.8	28.8	85	24.9	0	0	---	0.00	30.433 
23:45	28.7	28.7	28.7	85	24.8	0	0	---	0.00	30.435 
23:50	28.4	28.4	28.4	85	24.5	0	0	---	0.00	30.435 
23:55	28.2	28.2	28.2	85	24.3	0	0	---	0.00	30.435 

CoCoRaHS
IN-AL-39
A2 Web Hosting
Creative Commons License
GoDaddy
search engine by freefind advanced

loaded 2018-11-21 00:33:32 • last modified 2010-11-18 10:43:29
Privacy PolicyDisclaimer
• wx.awcolley.com is powered by PmWiki v.2002016 •
• all content (unless otherwise noted) © 2018 A W Colley